Time;durP1;ratioP1;P1;durP2;ratioP2;P2;SDS_P1;SDS_P2;PMS_P1;PMS_P2;Temp;Humidity;BMP_temperature;BMP_pressure;BME280_temperature;BME280_humidity;BME280_pressure;Samples;Min_cycle;Max_cycle;Signal;HPM_P1;HPM_P2
2021/06/23 00:01:46;;;;;;;0.13;0.13;;;14.90;72.30;;;;;;5032026;28;20056;-63
2021/06/23 00:04:12;;;;;;;0.20;0.20;;;14.90;71.80;;;;;;5032535;28;20054;-62
2021/06/23 00:06:39;;;;;;;0.20;0.20;;;14.90;72.20;;;;;;5032005;28;20132;-63
2021/06/23 00:09:05;;;;;;;0.20;0.20;;;14.80;72.10;;;;;;5014407;28;20497;-63
2021/06/23 00:11:45;;;;;;;0.10;0.10;;;14.90;72.10;;;;;;5031432;28;20504;-62
2021/06/23 00:14:12;;;;;;;0.10;0.10;;;14.90;72.00;;;;;;5031691;28;20045;-63
2021/06/23 00:16:41;;;;;;;0.10;0.10;;;14.90;72.00;;;;;;5032125;28;20516;-62
2021/06/23 00:19:07;;;;;;;0.10;0.10;;;14.90;71.50;;;;;;5031860;28;20052;-63
2021/06/23 00:21:33;;;;;;;0.10;0.10;;;14.80;71.70;;;;;;5031346;28;20387;-63
2021/06/23 00:24:00;;;;;;;0.10;0.10;;;14.80;71.50;;;;;;5031944;28;20088;-63
2021/06/23 00:26:26;;;;;;;0.20;0.20;;;14.80;71.50;;;;;;5031550;28;20053;-62
2021/06/23 00:28:52;;;;;;;0.20;0.20;;;14.80;71.30;;;;;;5031557;28;20053;-62
2021/06/23 00:31:19;;;;;;;0.10;0.10;;;14.90;71.50;;;;;;5031727;28;20144;-63
2021/06/23 00:33:50;;;;;;;0.30;0.30;;;14.90;71.50;;;;;;5031330;28;20123;-63
2021/06/23 00:36:16;;;;;;;0.10;0.10;;;14.80;71.20;;;;;;5030329;28;20048;-62
2021/06/23 00:38:42;;;;;;;0.22;0.22;;;14.80;71.30;;;;;;5031584;28;20049;-62
2021/06/23 00:41:15;;;;;;;0.00;0.00;;;14.80;71.00;;;;;;5031600;28;20490;-62
2021/06/23 00:43:42;;;;;;;0.20;0.20;;;14.80;70.70;;;;;;5029668;28;20572;-63
2021/06/23 00:46:10;;;;;;;0.13;0.13;;;14.80;70.90;;;;;;5031171;28;20268;-63
2021/06/23 00:48:37;;;;;;;0.20;0.20;;;14.80;71.00;;;;;;5031199;28;20049;-62
2021/06/23 00:51:04;;;;;;;0.20;0.20;;;14.80;71.20;;;;;;5031492;28;20532;-63
2021/06/23 00:53:31;;;;;;;0.20;0.20;;;14.80;71.00;;;;;;5031770;28;20076;-62
2021/06/23 00:55:58;;;;;;;0.10;0.10;;;14.80;71.00;;;;;;5031357;28;20064;-62
2021/06/23 00:58:25;;;;;;;0.20;0.20;;;14.80;71.00;;;;;;5031436;28;20045;-62
2021/06/23 01:00:54;;;;;;;0.20;0.20;;;14.80;71.10;;;;;;5031249;28;20041;-63
2021/06/23 01:03:23;;;;;;;0.32;0.20;;;14.80;71.20;;;;;;5031514;28;20073;-63
2021/06/23 01:05:51;;;;;;;0.20;0.20;;;14.80;71.20;;;;;;5013730;28;20160;-63
2021/06/23 01:08:19;;;;;;;0.10;0.10;;;14.80;71.20;;;;;;5031051;28;20088;-63
2021/06/23 01:10:48;;;;;;;0.10;0.10;;;14.80;71.10;;;;;;5031128;28;20057;-63
2021/06/23 01:13:36;;;;;;;0.00;0.00;;;14.80;71.30;;;;;;5031056;28;20049;-62
2021/06/23 01:16:05;;;;;;;0.10;0.10;;;14.80;71.30;;;;;;5030792;28;20132;-63
2021/06/23 01:18:36;;;;;;;0.17;0.17;;;14.80;71.40;;;;;;5030695;28;20420;-63
2021/06/23 01:21:04;;;;;;;0.10;0.10;;;14.80;71.30;;;;;;5031424;28;20135;-62
2021/06/23 01:23:31;;;;;;;0.10;0.10;;;14.80;71.50;;;;;;5031451;28;20037;-63
2021/06/23 01:25:57;;;;;;;0.10;0.10;;;14.80;71.50;;;;;;5030887;28;20041;-62
2021/06/23 01:28:24;;;;;;;0.10;0.10;;;14.80;71.50;;;;;;5030860;28;20417;-63
2021/06/23 01:30:50;;;;;;;0.10;0.10;;;14.80;71.50;;;;;;5030662;28;20048;-62
2021/06/23 01:33:17;;;;;;;0.10;0.10;;;14.80;71.30;;;;;;5030877;28;20061;-63
2021/06/23 01:35:46;;;;;;;0.15;0.15;;;14.80;71.30;;;;;;5030934;28;20052;-62
2021/06/23 01:38:14;;;;;;;0.20;0.20;;;14.80;71.30;;;;;;5031455;28;20046;-63
2021/06/23 01:40:40;;;;;;;0.10;0.10;;;14.80;71.30;;;;;;5030627;28;20104;-63
2021/06/23 01:43:10;;;;;;;0.10;0.10;;;14.80;71.20;;;;;;5031036;28;20051;-63
2021/06/23 01:45:38;;;;;;;0.10;0.10;;;14.80;71.30;;;;;;5030822;28;20065;-63
2021/06/23 01:48:05;;;;;;;0.10;0.10;;;14.80;71.30;;;;;;5031228;28;20180;-63
2021/06/23 01:50:32;;;;;;;0.10;0.10;;;14.70;71.30;;;;;;5031147;28;20128;-63
2021/06/23 01:52:59;;;;;;;0.10;0.10;;;14.70;71.40;;;;;;5030503;28;20111;-62
2021/06/23 01:55:28;;;;;;;0.10;0.10;;;14.70;71.50;;;;;;5033785;28;20095;-62
2021/06/23 01:58:00;;;;;;;0.20;0.20;;;14.70;71.60;;;;;;5034415;28;20129;-63
2021/06/23 02:00:33;;;;;;;0.13;0.13;;;14.70;71.70;;;;;;5034590;28;20049;-63
2021/06/23 02:03:09;;;;;;;0.10;0.10;;;14.70;71.70;;;;;;5034418;28;20049;-63
2021/06/23 02:06:00;;;;;;;0.20;0.20;;;14.70;71.80;;;;;;5050423;28;20056;-62
2021/06/23 02:08:58;;;;;;;0.10;0.10;;;14.70;72.00;;;;;;5050243;28;20528;-63
2021/06/23 02:11:40;;;;;;;0.17;0.17;;;14.70;72.10;;;;;;5036242;28;20053;-63
2021/06/23 02:14:25;;;;;;;0.10;0.10;;;14.70;72.20;;;;;;5048830;28;20108;-63
2021/06/23 02:16:54;;;;;;;0.20;0.20;;;14.60;72.30;;;;;;5048008;28;20481;-65
2021/06/23 02:19:21;;;;;;;0.20;0.20;;;14.70;72.50;;;;;;5049616;28;20128;-63
2021/06/23 02:21:48;;;;;;;0.10;0.10;;;14.60;72.40;;;;;;5054094;28;20048;-63
2021/06/23 02:24:14;;;;;;;0.10;0.10;;;14.60;72.50;;;;;;5035234;28;20159;-63
2021/06/23 02:26:41;;;;;;;0.20;0.20;;;14.60;72.60;;;;;;5033830;28;20135;-62
2021/06/23 02:29:08;;;;;;;0.10;0.10;;;14.60;72.60;;;;;;5033891;28;20049;-63
2021/06/23 02:31:38;;;;;;;0.10;0.10;;;14.60;72.60;;;;;;5033798;28;20054;-63
2021/06/23 02:34:08;;;;;;;0.20;0.20;;;14.60;72.70;;;;;;5047407;28;20504;-63
2021/06/23 02:36:35;;;;;;;0.10;0.10;;;14.60;72.60;;;;;;5042090;28;20551;-63
2021/06/23 02:39:03;;;;;;;0.20;0.20;;;14.60;72.50;;;;;;5053150;28;20045;-63
2021/06/23 02:41:30;;;;;;;0.20;0.20;;;14.60;72.40;;;;;;5020199;28;20079;-63
2021/06/23 02:43:57;;;;;;;0.10;0.10;;;14.50;72.30;;;;;;5033491;28;20053;-63
2021/06/23 02:46:23;;;;;;;0.08;0.08;;;14.50;72.30;;;;;;5032979;28;20045;-63
2021/06/23 02:48:51;;;;;;;0.05;0.05;;;14.50;72.30;;;;;;5033646;28;20176;-63
2021/06/23 02:51:21;;;;;;;0.20;0.20;;;14.50;72.30;;;;;;5034268;28;20049;-63
2021/06/23 02:53:49;;;;;;;0.20;0.20;;;14.50;72.50;;;;;;5042613;28;20045;-63
2021/06/23 02:56:17;;;;;;;0.30;0.30;;;14.50;72.60;;;;;;5050390;28;20491;-63
2021/06/23 02:58:44;;;;;;;0.25;0.25;;;14.50;72.70;;;;;;5053557;28;20052;-63
2021/06/23 03:01:12;;;;;;;0.10;0.10;;;14.50;72.80;;;;;;5053256;28;20080;-63
2021/06/23 03:03:43;;;;;;;0.20;0.20;;;14.50;72.90;;;;;;5053494;28;20041;-63
2021/06/23 03:06:09;;;;;;;0.20;0.20;;;14.50;73.00;;;;;;5052769;28;20048;-63
2021/06/23 03:08:37;;;;;;;0.15;0.15;;;14.50;73.20;;;;;;5042654;28;20156;-63
2021/06/23 03:11:05;;;;;;;0.20;0.20;;;14.50;73.40;;;;;;5036858;28;20080;-62
2021/06/23 03:13:31;;;;;;;0.40;0.30;;;14.50;73.60;;;;;;5048122;28;20484;-63
2021/06/23 03:15:58;;;;;;;0.20;0.20;;;14.50;73.80;;;;;;5033506;28;20146;-63
2021/06/23 03:18:27;;;;;;;0.22;0.22;;;14.40;74.00;;;;;;5033052;28;20504;-62
2021/06/23 03:20:53;;;;;;;0.10;0.10;;;14.40;74.20;;;;;;5039710;28;20453;-63
2021/06/23 03:23:20;;;;;;;0.20;0.20;;;14.40;75.40;;;;;;5053069;28;20136;-63
2021/06/23 03:25:46;;;;;;;0.30;0.30;;;14.40;74.50;;;;;;5052743;28;20138;-63
2021/06/23 03:28:12;;;;;;;0.35;0.35;;;14.50;74.70;;;;;;5052788;28;20071;-62
2021/06/23 03:30:40;;;;;;;0.20;0.20;;;14.50;75.00;;;;;;5052754;28;20079;-63
2021/06/23 03:33:06;;;;;;;0.20;0.20;;;14.50;75.20;;;;;;5052196;28;20132;-63
2021/06/23 03:35:33;;;;;;;0.30;0.20;;;14.50;75.20;;;;;;5039801;28;20548;-62
2021/06/23 03:37:59;;;;;;;0.13;0.13;;;14.50;75.20;;;;;;5043970;28;20045;-62
2021/06/23 03:40:26;;;;;;;0.30;0.30;;;14.50;75.30;;;;;;5046958;28;20076;-63
2021/06/23 03:42:52;;;;;;;0.30;0.30;;;14.50;75.40;;;;;;5050973;28;20052;-63
2021/06/23 03:45:19;;;;;;;0.17;0.17;;;14.40;75.50;;;;;;5032742;28;20053;-63
2021/06/23 03:47:46;;;;;;;0.25;0.20;;;14.40;75.50;;;;;;5050873;28;20576;-63
2021/06/23 03:50:14;;;;;;;0.20;0.20;;;14.40;75.70;;;;;;5052430;28;20055;-63
2021/06/23 03:52:41;;;;;;;0.20;0.20;;;14.40;75.80;;;;;;5049276;28;20142;-62
2021/06/23 03:55:20;;;;;;;0.40;0.28;;;14.40;75.80;;;;;;5050052;28;20048;-63
2021/06/23 03:57:49;;;;;;;0.40;0.40;;;14.40;75.90;;;;;;5031322;28;20045;-63
2021/06/23 04:00:16;;;;;;;0.30;0.30;;;14.40;75.80;;;;;;5052259;28;20182;-63
2021/06/23 04:02:43;;;;;;;0.20;0.20;;;14.40;75.90;;;;;;5052068;28;20094;-63
2021/06/23 04:05:11;;;;;;;0.28;0.28;;;14.40;75.90;;;;;;5052004;28;20053;-63
2021/06/23 04:07:37;;;;;;;0.20;0.20;;;14.40;75.90;;;;;;5051740;28;20501;-63
2021/06/23 04:10:05;;;;;;;0.20;0.20;;;14.40;75.90;;;;;;5028340;28;20128;-62
2021/06/23 04:12:31;;;;;;;0.30;0.30;;;14.40;75.90;;;;;;5044288;28;20128;-62
2021/06/23 04:14:57;;;;;;;0.28;0.28;;;14.40;77.00;;;;;;5037460;28;20046;-62
2021/06/23 04:17:24;;;;;;;0.20;0.20;;;14.40;76.00;;;;;;5014156;28;20175;-63
2021/06/23 04:19:50;;;;;;;0.22;0.22;;;14.40;76.00;;;;;;5031639;28;20607;-62
2021/06/23 04:22:17;;;;;;;0.20;0.20;;;14.40;76.10;;;;;;5036466;28;20045;-62
2021/06/23 04:24:43;;;;;;;0.30;0.30;;;14.40;76.10;;;;;;5052025;28;20080;-63
2021/06/23 04:27:10;;;;;;;0.20;0.20;;;14.40;76.20;;;;;;5051423;28;20048;-63
2021/06/23 04:29:36;;;;;;;0.30;0.30;;;14.40;76.20;;;;;;5044045;28;20049;-63
2021/06/23 04:32:03;;;;;;;0.30;0.30;;;14.40;76.40;;;;;;5046765;28;20049;-62
2021/06/23 04:34:29;;;;;;;0.10;0.10;;;14.40;76.40;;;;;;5019929;28;20037;-62
2021/06/23 04:36:55;;;;;;;0.30;0.30;;;14.50;76.50;;;;;;5042597;28;20526;-62
2021/06/23 04:39:21;;;;;;;0.15;0.15;;;14.50;76.50;;;;;;5018263;28;20489;-62
2021/06/23 04:41:48;;;;;;;0.20;0.20;;;14.50;76.50;;;;;;5020719;28;20472;-63
2021/06/23 04:44:14;;;;;;;0.20;0.20;;;14.50;76.60;;;;;;5018004;28;20116;-62
2021/06/23 04:46:40;;;;;;;0.20;0.20;;;14.50;76.60;;;;;;5014745;28;20057;-63
2021/06/23 04:49:07;;;;;;;0.30;0.30;;;14.50;76.70;;;;;;5014584;28;20069;-62
2021/06/23 04:51:33;;;;;;;0.20;0.20;;;14.50;76.70;;;;;;5015338;28;20042;-63
2021/06/23 04:54:00;;;;;;;0.30;0.30;;;14.50;76.90;;;;;;5030641;28;20048;-62
2021/06/23 04:56:26;;;;;;;0.20;0.20;;;14.50;77.00;;;;;;5029828;28;20041;-63
2021/06/23 04:58:52;;;;;;;0.30;0.30;;;14.50;77.10;;;;;;5032725;28;20080;-63
2021/06/23 05:01:19;;;;;;;0.10;0.10;;;14.50;77.20;;;;;;5031984;28;20048;-63
2021/06/23 05:03:45;;;;;;;0.20;0.20;;;14.50;77.20;;;;;;5030750;28;20045;-62
2021/06/23 05:06:11;;;;;;;0.10;0.10;;;14.50;78.20;;;;;;5031262;28;20130;-62
2021/06/23 05:08:38;;;;;;;0.28;0.28;;;14.50;77.20;;;;;;5038566;28;20484;-63
2021/06/23 05:11:04;;;;;;;0.30;0.30;;;14.50;77.20;;;;;;5037382;28;20092;-62
2021/06/23 05:13:31;;;;;;;0.17;0.17;;;14.50;77.20;;;;;;5048244;28;20178;-63
2021/06/23 05:15:58;;;;;;;0.10;0.10;;;14.50;77.30;;;;;;5031454;28;20046;-60
2021/06/23 05:18:25;;;;;;;0.30;0.25;;;14.50;77.40;;;;;;5030608;28;20553;-60
2021/06/23 05:20:52;;;;;;;0.20;0.20;;;14.60;77.40;;;;;;5031309;28;20529;-60
2021/06/23 05:23:18;;;;;;;0.10;0.10;;;14.60;77.40;;;;;;5031032;28;20073;-60
2021/06/23 05:25:44;;;;;;;0.15;0.15;;;14.60;77.40;;;;;;5029905;28;20537;-59
2021/06/23 05:28:10;;;;;;;0.20;0.20;;;14.70;77.60;;;;;;5025103;28;20132;-59
2021/06/23 05:30:37;;;;;;;0.20;0.20;;;14.70;77.60;;;;;;5036293;28;20053;-60
2021/06/23 05:33:03;;;;;;;0.10;0.10;;;14.70;77.50;;;;;;5036085;28;20494;-60
2021/06/23 05:35:29;;;;;;;0.20;0.20;;;14.80;77.40;;;;;;5037805;28;20540;-60
2021/06/23 05:37:56;;;;;;;0.20;0.20;;;14.80;77.30;;;;;;5050769;28;20098;-60
2021/06/23 05:40:22;;;;;;;0.28;0.28;;;14.80;77.40;;;;;;5046365;28;20064;-60
2021/06/23 05:42:49;;;;;;;0.28;0.28;;;14.90;77.30;;;;;;5050496;28;20048;-59
2021/06/23 05:45:15;;;;;;;0.10;0.10;;;14.90;77.20;;;;;;5046562;28;20052;-63
2021/06/23 05:47:42;;;;;;;0.20;0.20;;;14.90;77.20;;;;;;5050257;28;20048;-59
2021/06/23 05:50:09;;;;;;;0.30;0.30;;;14.90;77.20;;;;;;5051616;28;20471;-59
2021/06/23 05:52:35;;;;;;;0.10;0.10;;;14.90;77.20;;;;;;5036147;28;20049;-59
2021/06/23 05:55:02;;;;;;;0.35;0.35;;;14.90;77.20;;;;;;5029213;28;20176;-60
2021/06/23 05:57:28;;;;;;;0.20;0.20;;;14.90;77.20;;;;;;5044217;28;20128;-60
2021/06/23 05:59:55;;;;;;;0.28;0.28;;;14.90;77.30;;;;;;5041288;28;20056;-60
2021/06/23 06:02:21;;;;;;;0.10;0.10;;;15.00;78.30;;;;;;5034943;28;20416;-59
2021/06/23 06:04:47;;;;;;;0.30;0.30;;;14.90;77.20;;;;;;5031826;28;20057;-59
2021/06/23 06:07:14;;;;;;;0.30;0.30;;;15.00;77.30;;;;;;5035400;28;20052;-59
2021/06/23 06:09:40;;;;;;;0.20;0.20;;;15.00;77.20;;;;;;5035497;28;20044;-60
2021/06/23 06:12:07;;;;;;;0.20;0.20;;;15.00;77.00;;;;;;5040198;28;20100;-59
2021/06/23 06:14:33;;;;;;;0.30;0.30;;;15.10;76.70;;;;;;5032940;28;20053;-59
2021/06/23 06:17:00;;;;;;;0.20;0.20;;;15.10;76.50;;;;;;5030259;28;20156;-59
2021/06/23 06:19:27;;;;;;;0.20;0.20;;;15.10;76.40;;;;;;5040650;28;20574;-60
2021/06/23 06:21:54;;;;;;;0.30;0.30;;;15.10;76.20;;;;;;5036277;28;20463;-59
2021/06/23 06:24:21;;;;;;;0.20;0.20;;;15.20;76.10;;;;;;5018223;28;20058;-62
2021/06/23 06:26:47;;;;;;;0.30;0.30;;;15.20;76.00;;;;;;5037517;28;20049;-60
2021/06/23 06:29:14;;;;;;;0.20;0.20;;;15.30;75.50;;;;;;5030845;28;20049;-60
2021/06/23 06:31:41;;;;;;;0.20;0.20;;;15.30;75.50;;;;;;5043756;28;20065;-59
2021/06/23 06:34:08;;;;;;;0.25;0.25;;;15.30;75.40;;;;;;5031789;28;20115;-59
2021/06/23 06:36:34;;;;;;;0.20;0.20;;;15.40;75.20;;;;;;5039055;28;20052;-60
2021/06/23 06:39:00;;;;;;;0.20;0.20;;;15.40;74.90;;;;;;5038022;28;20041;-60
2021/06/23 06:41:27;;;;;;;0.20;0.20;;;15.50;74.90;;;;;;5043998;28;20049;-60
2021/06/23 06:43:53;;;;;;;0.20;0.20;;;15.50;74.80;;;;;;5039638;28;20154;-60
2021/06/23 06:46:19;;;;;;;0.20;0.20;;;15.60;74.80;;;;;;5044722;28;20385;-60
2021/06/23 06:48:46;;;;;;;0.30;0.30;;;15.60;74.50;;;;;;5041247;28;20590;-60
2021/06/23 06:51:12;;;;;;;0.20;0.20;;;15.60;74.20;;;;;;5044915;28;20066;-59
2021/06/23 06:53:38;;;;;;;0.32;0.32;;;15.70;74.30;;;;;;5042785;28;20053;-60
2021/06/23 06:56:05;;;;;;;0.20;0.20;;;15.70;74.30;;;;;;5042194;28;20127;-60
2021/06/23 06:58:31;;;;;;;0.20;0.20;;;15.70;75.20;;;;;;5044353;28;20106;-60
2021/06/23 07:00:57;;;;;;;0.30;0.30;;;15.80;74.30;;;;;;5039924;28;20049;-60
2021/06/23 07:03:24;;;;;;;0.30;0.30;;;15.80;74.10;;;;;;5044875;28;20607;-59
2021/06/23 07:05:50;;;;;;;0.10;0.10;;;15.80;74.00;;;;;;5040001;28;20056;-60
2021/06/23 07:08:16;;;;;;;0.22;0.22;;;15.80;73.90;;;;;;5041054;28;20079;-61
2021/06/23 07:10:43;;;;;;;0.30;0.30;;;15.80;73.90;;;;;;5032287;28;20452;-59
2021/06/23 07:13:09;;;;;;;0.20;0.20;;;15.80;73.60;;;;;;5049332;28;20045;-60
2021/06/23 07:15:35;;;;;;;0.40;0.40;;;15.80;73.60;;;;;;5034735;28;20118;-59
2021/06/23 07:18:02;;;;;;;0.20;0.20;;;15.90;73.50;;;;;;5049374;28;20057;-60
2021/06/23 07:20:28;;;;;;;0.15;0.15;;;15.90;73.30;;;;;;5028735;28;20053;-60
2021/06/23 07:22:54;;;;;;;0.08;0.08;;;15.90;73.30;;;;;;5049187;28;20455;-59
2021/06/23 07:25:21;;;;;;;0.20;0.20;;;15.90;73.20;;;;;;5049126;28;20063;-60
2021/06/23 07:27:48;;;;;;;0.30;0.30;;;16.00;73.30;;;;;;5049262;28;20140;-60
2021/06/23 07:30:15;;;;;;;0.30;0.30;;;16.00;73.20;;;;;;5049149;28;20059;-60
2021/06/23 07:33:00;;;;;;;0.20;0.20;;;16.10;72.70;;;;;;5049144;28;20053;-60
2021/06/23 07:38:14;;;;;;;0.20;0.20;;;16.20;72.20;;;;;;5049805;28;20566;-60
2021/06/23 07:43:14;;;;;;;0.30;0.30;;;16.30;72.30;;;;;;5049607;28;20062;-60
2021/06/23 07:45:47;;;;;;;0.20;0.20;;;16.50;71.90;;;;;;5031013;28;20134;-60
2021/06/23 07:48:13;;;;;;;0.30;0.30;;;16.60;70.90;;;;;;5049888;28;20048;-60
2021/06/23 07:50:50;;;;;;;0.20;0.20;;;16.80;70.80;;;;;;5049341;28;20111;-60
2021/06/23 07:53:26;;;;;;;0.20;0.20;;;16.80;70.50;;;;;;5038675;28;20422;-60
2021/06/23 07:56:07;;;;;;;0.10;0.10;;;17.00;70.50;;;;;;5048645;28;20106;-59
2021/06/23 08:01:51;;;;;;;0.25;0.25;;;17.30;68.50;;;;;;5049293;28;19928;-60
2021/06/23 08:09:40;;;;;;;0.10;0.10;;;17.50;67.30;;;;;;5036392;28;20085;-60
2021/06/23 08:12:17;;;;;;;0.40;0.40;;;17.50;67.60;;;;;;5037525;28;20106;-61
2021/06/23 08:14:43;;;;;;;0.20;0.20;;;17.40;67.20;;;;;;5028288;28;20103;-60
2021/06/23 08:17:10;;;;;;;0.20;0.20;;;17.30;67.40;;;;;;5029874;28;20168;-59
2021/06/23 08:19:37;;;;;;;0.20;0.20;;;17.30;67.50;;;;;;5029906;28;20057;-59
2021/06/23 08:22:04;;;;;;;0.20;0.20;;;17.30;67.50;;;;;;5031330;28;20535;-60
2021/06/23 08:24:31;;;;;;;0.20;0.20;;;17.20;67.80;;;;;;5039025;28;20053;-60
2021/06/23 08:26:57;;;;;;;0.10;0.10;;;17.20;68.70;;;;;;5028273;28;20057;-60
2021/06/23 08:29:23;;;;;;;0.20;0.20;;;17.20;68.30;;;;;;5041413;28;20060;-60
2021/06/23 08:31:49;;;;;;;0.10;0.10;;;17.20;68.40;;;;;;5028768;28;20076;-60
2021/06/23 08:34:16;;;;;;;0.30;0.20;;;17.10;68.10;;;;;;5029286;28;20053;-60
2021/06/23 08:36:42;;;;;;;0.20;0.20;;;17.10;68.00;;;;;;5028151;28;20049;-60
2021/06/23 08:39:08;;;;;;;0.20;0.20;;;17.10;68.40;;;;;;5028768;28;20476;-60
2021/06/23 08:41:37;;;;;;;0.10;0.10;;;17.10;68.60;;;;;;5038959;28;20477;-60
2021/06/23 08:44:03;;;;;;;0.13;0.13;;;17.10;68.40;;;;;;5033162;28;20400;-60
2021/06/23 08:46:30;;;;;;;0.20;0.20;;;17.10;68.60;;;;;;5039757;28;20045;-60
2021/06/23 08:49:01;;;;;;;0.35;0.35;;;17.10;68.50;;;;;;5037329;28;20049;-60
2021/06/23 08:51:27;;;;;;;0.50;0.50;;;17.20;68.40;;;;;;5043137;28;20504;-60
2021/06/23 08:53:54;;;;;;;0.20;0.20;;;17.20;67.90;;;;;;5038337;28;20146;-60
2021/06/23 08:56:20;;;;;;;2.58;1.40;;;17.20;67.90;;;;;;5042798;28;20041;-60
2021/06/23 08:58:46;;;;;;;0.60;0.60;;;17.10;68.00;;;;;;5040977;28;20650;-60
2021/06/23 09:01:13;;;;;;;0.30;0.30;;;17.10;68.50;;;;;;5040451;28;20040;-60
2021/06/23 09:03:58;;;;;;;0.30;0.30;;;17.10;68.70;;;;;;5041463;28;20056;-60
2021/06/23 09:06:59;;;;;;;0.20;0.20;;;17.20;68.50;;;;;;5041065;28;20048;-60
2021/06/23 09:09:27;;;;;;;0.30;0.30;;;17.10;68.20;;;;;;5045523;28;20044;-59
2021/06/23 09:11:59;;;;;;;1.13;0.50;;;17.10;68.30;;;;;;5035002;28;20610;-60
2021/06/23 09:14:28;;;;;;;0.10;0.10;;;17.10;68.40;;;;;;5036389;28;20049;-59
2021/06/23 09:17:15;;;;;;;0.13;0.13;;;17.10;67.70;;;;;;5044187;28;20099;-60
2021/06/23 09:19:47;;;;;;;0.15;0.15;;;17.10;68.00;;;;;;5043961;28;20049;-60
2021/06/23 09:22:47;;;;;;;0.30;0.30;;;17.10;68.10;;;;;;5034218;28;20052;-60
2021/06/23 09:25:13;;;;;;;0.38;0.38;;;17.10;68.20;;;;;;5046078;28;20138;-61
2021/06/23 09:27:57;;;;;;;0.10;0.10;;;17.00;68.00;;;;;;5047338;28;20126;-60
2021/06/23 09:30:37;;;;;;;0.35;0.30;;;17.00;68.20;;;;;;5046905;28;20553;-60
2021/06/23 09:33:21;;;;;;;0.10;0.10;;;17.00;68.30;;;;;;5046732;28;20513;-60
2021/06/23 09:35:59;;;;;;;0.22;0.20;;;17.00;68.60;;;;;;5033842;28;20128;-60
2021/06/23 09:38:33;;;;;;;0.20;0.20;;;17.00;68.90;;;;;;5046928;28;20595;-60
2021/06/23 09:41:00;;;;;;;0.15;0.15;;;17.10;68.90;;;;;;5046161;28;20045;-60
2021/06/23 09:43:40;;;;;;;0.22;0.22;;;17.10;69.10;;;;;;5047563;28;20053;-60
2021/06/23 09:46:34;;;;;;;0.10;0.10;;;17.10;69.20;;;;;;5046901;28;20083;-60
2021/06/23 09:49:10;;;;;;;0.10;0.10;;;17.20;69.20;;;;;;5042434;28;20132;-60
2021/06/23 09:51:53;;;;;;;0.17;0.17;;;17.20;68.50;;;;;;5043221;28;20466;-60
2021/06/23 09:54:29;;;;;;;0.10;0.10;;;17.30;68.30;;;;;;5032103;28;20165;-60
2021/06/23 09:57:05;;;;;;;0.30;0.30;;;17.30;68.30;;;;;;5046480;28;20045;-59
2021/06/23 09:59:36;;;;;;;0.32;0.30;;;17.30;67.90;;;;;;5046173;28;20430;-60
2021/06/23 10:02:04;;;;;;;0.30;0.30;;;17.30;68.10;;;;;;5046696;28;20057;-60
2021/06/23 10:04:35;;;;;;;0.20;0.20;;;17.30;68.20;;;;;;5045982;28;20538;-60
2021/06/23 10:07:04;;;;;;;0.20;0.20;;;17.30;68.00;;;;;;5044837;28;20056;-60
2021/06/23 10:09:32;;;;;;;0.10;0.10;;;17.30;67.90;;;;;;5034489;28;20134;-63
2021/06/23 10:12:06;;;;;;;0.10;0.10;;;17.30;68.00;;;;;;5029088;28;20052;-63
2021/06/23 10:14:47;;;;;;;0.20;0.20;;;17.30;68.10;;;;;;5033658;28;20049;-63
2021/06/23 10:17:14;;;;;;;0.40;0.40;;;17.30;68.10;;;;;;5030263;28;20132;-62
2021/06/23 10:19:41;;;;;;;0.20;0.20;;;17.20;68.00;;;;;;5030563;28;20467;-63
2021/06/23 10:22:08;;;;;;;0.30;0.30;;;17.20;68.10;;;;;;5031221;28;20056;-63
2021/06/23 10:24:35;;;;;;;0.20;0.20;;;17.20;68.10;;;;;;5041003;28;20056;-63
2021/06/23 10:27:09;;;;;;;0.20;0.20;;;17.20;68.30;;;;;;5039706;28;20057;-63
2021/06/23 10:29:37;;;;;;;0.10;0.10;;;17.20;68.30;;;;;;5038564;28;20132;-63
2021/06/23 10:32:06;;;;;;;0.20;0.20;;;17.20;68.50;;;;;;5040104;28;20057;-63
2021/06/23 10:34:33;;;;;;;0.15;0.15;;;17.30;68.60;;;;;;5038062;28;20119;-62
2021/06/23 10:36:59;;;;;;;0.17;0.17;;;17.30;68.20;;;;;;5034727;28;20045;-63
2021/06/23 10:39:35;;;;;;;0.20;0.20;;;17.30;68.20;;;;;;5034845;28;20478;-63
2021/06/23 10:42:06;;;;;;;0.10;0.10;;;17.30;68.00;;;;;;5040286;28;20044;-63
2021/06/23 10:44:36;;;;;;;0.13;0.13;;;17.30;67.90;;;;;;5030456;28;20136;-63
2021/06/23 10:47:08;;;;;;;0.10;0.10;;;17.30;68.00;;;;;;5031746;28;20065;-63
2021/06/23 10:49:50;;;;;;;0.20;0.20;;;17.20;67.70;;;;;;5038725;28;20053;-63
2021/06/23 10:52:19;;;;;;;0.20;0.20;;;17.20;67.20;;;;;;5034573;28;20061;-62
2021/06/23 10:54:49;;;;;;;0.10;0.10;;;17.10;67.40;;;;;;5032839;28;20045;-63
2021/06/23 10:57:24;;;;;;;0.30;0.30;;;17.10;67.50;;;;;;5034131;28;20166;-62
2021/06/23 10:59:55;;;;;;;0.10;0.10;;;17.10;67.20;;;;;;5030089;28;20053;-62
2021/06/23 11:02:30;;;;;;;0.10;0.10;;;17.00;67.30;;;;;;5040951;28;20571;-62
2021/06/23 11:05:05;;;;;;;0.10;0.10;;;17.00;67.50;;;;;;5029572;28;20079;-63
2021/06/23 11:07:35;;;;;;;0.20;0.20;;;17.00;67.30;;;;;;5034299;28;20204;-63
2021/06/23 11:10:10;;;;;;;;;;;17.00;67.20;;;;;;5026647;28;20158;-63
2021/06/23 11:12:47;;;;;;;0.10;0.10;;;17.00;67.50;;;;;;5042824;28;19932;-63
2021/06/23 11:15:15;;;;;;;0.10;0.10;;;17.00;67.60;;;;;;5032959;28;20157;-63
2021/06/23 11:17:46;;;;;;;0.30;0.30;;;17.00;67.70;;;;;;5038642;28;20085;-62
2021/06/23 11:20:19;;;;;;;0.75;0.30;;;17.10;67.40;;;;;;5047031;28;20049;-63
2021/06/23 11:22:46;;;;;;;0.28;0.28;;;17.00;67.20;;;;;;5049606;28;20102;-63
2021/06/23 11:25:31;;;;;;;0.20;0.20;;;17.10;67.20;;;;;;5049724;28;20487;-63
2021/06/23 11:28:10;;;;;;;0.20;0.20;;;17.10;67.10;;;;;;5048791;28;20091;-63
2021/06/23 11:30:44;;;;;;;0.10;0.10;;;17.10;66.80;;;;;;5034020;28;20048;-63
2021/06/23 11:33:29;;;;;;;0.28;0.20;;;17.10;66.80;;;;;;5035459;28;20053;-62
2021/06/23 11:35:59;;;;;;;0.10;0.10;;;17.10;67.10;;;;;;5034833;28;20059;-63
2021/06/23 11:38:26;;;;;;;0.20;0.20;;;17.10;67.30;;;;;;5040125;28;20045;-63
2021/06/23 11:40:54;;;;;;;0.20;0.20;;;17.20;67.60;;;;;;5040716;28;20547;-63
2021/06/23 11:43:23;;;;;;;0.22;0.13;;;17.20;67.50;;;;;;5010796;28;20064;-63
2021/06/23 11:45:49;;;;;;;0.10;0.10;;;17.20;67.00;;;;;;5017284;28;20046;-63
2021/06/23 11:48:17;;;;;;;0.10;0.10;;;17.30;67.00;;;;;;5021945;28;20114;-63
2021/06/23 11:50:45;;;;;;;0.15;0.15;;;17.40;67.00;;;;;;5022890;28;20176;-63
2021/06/23 11:53:14;;;;;;;0.05;0.05;;;17.60;66.90;;;;;;5018494;28;20076;-63
2021/06/23 11:55:42;;;;;;;0.10;0.10;;;17.70;66.70;;;;;;5016953;28;20056;-63
2021/06/23 11:58:09;;;;;;;0.22;0.22;;;18.00;65.30;;;;;;5007673;28;20053;-63
2021/06/23 12:00:38;;;;;;;0.10;0.10;;;18.10;66.10;;;;;;5018738;28;20068;-63
2021/06/23 12:03:06;;;;;;;0.00;0.00;;;18.40;65.70;;;;;;5021049;28;20049;-63
2021/06/23 12:05:33;;;;;;;0.10;0.10;;;18.60;65.10;;;;;;5019563;28;20050;-63
2021/06/23 12:08:00;;;;;;;0.17;0.17;;;18.80;63.70;;;;;;5022429;28;20046;-63
2021/06/23 12:10:28;;;;;;;0.10;0.10;;;19.00;63.90;;;;;;5019352;28;20417;-63
2021/06/23 12:12:55;;;;;;;0.10;0.10;;;19.20;63.80;;;;;;5012574;28;20053;-63
2021/06/23 12:15:23;;;;;;;0.03;0.00;;;19.40;62.60;;;;;;5027576;28;20042;-63
2021/06/23 12:17:52;;;;;;;0.10;0.10;;;19.60;62.00;;;;;;5018339;28;20053;-63
2021/06/23 12:20:20;;;;;;;0.10;0.10;;;19.70;61.60;;;;;;5025585;28;20060;-63
2021/06/23 12:22:55;;;;;;;0.17;0.10;;;19.80;61.30;;;;;;5028700;28;20041;-63
2021/06/23 12:25:23;;;;;;;0.10;0.10;;;19.90;60.70;;;;;;5028047;28;20064;-63
2021/06/23 12:27:51;;;;;;;0.10;0.10;;;19.90;60.30;;;;;;5028107;28;20465;-63
2021/06/23 12:30:19;;;;;;;0.10;0.10;;;19.80;60.70;;;;;;5014432;28;20197;-63
2021/06/23 12:32:45;;;;;;;0.15;0.15;;;19.60;59.60;;;;;;5028028;28;20057;-63
2021/06/23 12:35:12;;;;;;;0.20;0.20;;;19.50;59.80;;;;;;5016519;28;20514;-63
2021/06/23 12:37:41;;;;;;;0.10;0.10;;;19.50;60.00;;;;;;5027318;28;20045;-63
2021/06/23 12:40:08;;;;;;;0.10;0.10;;;19.40;60.00;;;;;;5027603;28;20057;-63
2021/06/23 12:42:34;;;;;;;0.10;0.10;;;19.30;60.40;;;;;;5028141;28;20052;-63
2021/06/23 12:45:00;;;;;;;0.00;0.00;;;19.20;59.90;;;;;;5027865;28;20572;-63
2021/06/23 12:47:26;;;;;;;0.10;0.10;;;19.10;60.60;;;;;;5027759;28;20049;-63
2021/06/23 12:49:53;;;;;;;0.08;0.08;;;19.00;61.10;;;;;;5028166;28;20574;-64
2021/06/23 12:52:19;;;;;;;0.00;0.00;;;19.00;60.60;;;;;;5028200;28;20054;-63
2021/06/23 12:54:45;;;;;;;0.08;0.08;;;19.00;61.20;;;;;;5028554;28;20049;-63
2021/06/23 12:57:13;;;;;;;0.10;0.10;;;18.90;61.00;;;;;;5027248;28;20656;-63
2021/06/23 12:59:40;;;;;;;0.00;0.00;;;18.80;60.80;;;;;;5027613;28;20079;-63
2021/06/23 13:02:06;;;;;;;0.00;0.00;;;18.80;61.20;;;;;;5024704;28;20501;-63
2021/06/23 13:04:33;;;;;;;0.10;0.10;;;18.80;61.40;;;;;;5027716;28;20049;-63
2021/06/23 13:06:59;;;;;;;0.03;0.03;;;18.70;61.30;;;;;;5027621;28;20425;-63
2021/06/23 13:09:25;;;;;;;0.15;0.15;;;18.70;61.00;;;;;;5020878;28;20046;-63
2021/06/23 13:11:52;;;;;;;0.05;0.05;;;18.70;61.00;;;;;;5011842;28;20116;-63